Weather reports worldwide

Advertisment
Grantley Adams, Grenada (78954): temperature & dewpoint: 18.04.2019 03:00:00 - 24.04.2019 03:00:00 (AST)Grantley Adams, Grenada (78954): wind speed: 18.04.2019 03:00:00 - 24.04.2019 03:00:00 (AST)Grantley Adams, Grenada (78954): wind direction: 18.04.2019 03:00:00 - 24.04.2019 03:00:00 (AST)Grantley Adams, Grenada (78954): visibility: 18.04.2019 03:00:00 - 24.04.2019 03:00:00 (AST)
Date & Time tt [°C] td [°C] ff [km/h] ff [kn] dd vv [km]
24.04.2019 03:00:00 - - - - - -
24.04.2019 02:00:00 26,0 22,0 22 12 ESE 10
24.04.2019 01:00:00 27,0 22,0 26 14 ESE 10
24.04.2019 00:00:00 27,0 22,0 24 13 ESE 10
23.04.2019 23:00:00 26,0 22,0 18 10 ESE 10
23.04.2019 22:00:00 27,0 22,0 21 11 ESE 10
23.04.2019 21:00:00 26,0 23,0 18 10 E 10
23.04.2019 20:00:00 27,0 22,0 22 12 E 10
23.04.2019 19:00:00 27,0 22,0 21 11 E 10
23.04.2019 18:00:00 27,0 22,0 18 10 E 10
23.04.2019 17:00:00 28,0 22,0 22 12 E 10
23.04.2019 16:00:00 29,0 22,0 24 13 ESE 10
23.04.2019 15:00:00 29,0 22,0 26 14 E 10
23.04.2019 14:00:00 30,0 22,0 24 13 E 10
23.04.2019 13:00:00 30,0 22,0 28 15 E 10
23.04.2019 12:00:00 30,0 22,0 26 14 E 10
23.04.2019 11:00:00 29,0 22,0 24 13 E 10
23.04.2019 10:00:00 29,0 22,0 24 13 E 10
23.04.2019 09:00:00 28,0 22,0 24 13 E 10
23.04.2019 08:00:00 27,0 23,0 21 11 E 10
23.04.2019 07:00:00 26,0 22,0 18 10 E 10
23.04.2019 06:00:00 24,0 22,0 11 6 ENE 10
23.04.2019 05:00:00 24,0 22,0 13 7 ENE 10
23.04.2019 04:00:00 24,0 22,0 11 6 NE 10
23.04.2019 03:00:00 24,0 22,0 24 13 E 10
23.04.2019 02:00:00 25,0 21,0 11 6 NE 10
23.04.2019 01:00:00 25,0 21,0 11 6 NE 10
23.04.2019 00:00:00 25,0 21,0 11 6 NE 10
22.04.2019 23:00:00 26,0 21,0 11 6 ENE 10
22.04.2019 22:00:00 26,0 21,0 15 8 E 10
22.04.2019 21:00:00 26,0 21,0 16 9 E 10
22.04.2019 20:00:00 26,0 20,0 15 8 ENE 10
22.04.2019 19:00:00 26,0 20,0 18 10 E 10
22.04.2019 18:00:00 26,0 20,0 18 10 E 10
22.04.2019 17:00:00 28,0 20,0 21 11 E 10
22.04.2019 16:00:00 28,0 21,0 22 12 E 10
22.04.2019 15:00:00 29,0 21,0 22 12 E 10
22.04.2019 14:00:00 29,0 21,0 26 14 E 10
22.04.2019 13:00:00 30,0 21,0 24 13 E 10
22.04.2019 12:00:00 29,0 21,0 28 15 E 10
22.04.2019 11:00:00 29,0 20,0 29 16 ENE 10
22.04.2019 10:00:00 29,0 21,0 28 15 ENE 10
22.04.2019 09:00:00 29,0 21,0 24 13 ENE 10
22.04.2019 08:00:00 28,0 20,0 26 14 ENE 10
22.04.2019 07:00:00 27,0 20,0 21 11 ENE 10
22.04.2019 06:00:00 25,0 19,0 13 7 ENE 10
22.04.2019 05:00:00 25,0 19,0 18 10 ENE 10
22.04.2019 04:00:00 25,0 19,0 15 8 ENE 10
22.04.2019 03:00:00 25,0 19,0 18 10 ENE 10
22.04.2019 02:00:00 25,0 19,0 18 10 ENE 10
22.04.2019 01:00:00 25,0 19,0 16 9 ENE 10
22.04.2019 00:00:00 26,0 19,0 22 12 E 10
21.04.2019 23:00:00 - - - - - -
21.04.2019 22:00:00 26,0 20,0 18 10 E 10
21.04.2019 21:00:00 26,0 19,0 28 15 E 10
21.04.2019 20:00:00 26,0 19,0 21 11 E 10
21.04.2019 19:00:00 26,0 20,0 22 12 ENE 10
21.04.2019 18:00:00 26,0 20,0 24 13 E 10
21.04.2019 17:00:00 28,0 21,0 28 15 E 10
21.04.2019 16:00:00 29,0 21,0 29 16 E 10
21.04.2019 15:00:00 29,0 21,0 34 18 E 10
21.04.2019 14:00:00 29,0 22,0 31 17 E 10
21.04.2019 13:00:00 30,0 20,0 35 19 E 10
21.04.2019 12:00:00 30,0 21,0 39 21 E 10
21.04.2019 11:00:00 30,0 21,0 39 21 E 10
21.04.2019 10:00:00 29,0 21,0 39 21 E 10
21.04.2019 09:00:00 28,0 20,0 41 22 E 10
21.04.2019 08:00:00 28,0 20,0 39 21 E 10
21.04.2019 07:00:00 27,0 20,0 41 22 E 10
21.04.2019 06:00:00 25,0 20,0 29 16 E 10
21.04.2019 05:00:00 26,0 20,0 31 17 E 10
21.04.2019 04:00:00 25,0 21,0 39 21 E 10
21.04.2019 03:00:00 26,0 21,0 35 19 E 10
21.04.2019 02:00:00 26,0 22,0 35 19 E 10
21.04.2019 01:00:00 26,0 23,0 35 19 E 10
21.04.2019 00:00:00 26,0 23,0 39 21 E 10
20.04.2019 23:00:00 26,0 22,0 37 20 E 10
20.04.2019 22:00:00 27,0 22,0 29 16 E 10
20.04.2019 21:00:00 26,0 22,0 31 17 E 10
20.04.2019 20:00:00 26,0 22,0 29 16 E 10
20.04.2019 19:00:00 27,0 22,0 29 16 E 10
20.04.2019 18:00:00 27,0 22,0 31 17 E 10
20.04.2019 17:00:00 28,0 22,0 31 17 E 10
20.04.2019 16:00:00 29,0 21,0 29 16 E 10
20.04.2019 15:00:00 29,0 21,0 34 18 E 10
20.04.2019 14:00:00 29,0 21,0 34 18 E 10
20.04.2019 13:00:00 29,0 22,0 34 18 E 10
20.04.2019 12:00:00 30,0 22,0 37 20 E 10
20.04.2019 11:00:00 30,0 22,0 34 18 E 10
20.04.2019 10:00:00 30,0 22,0 34 18 E 10
20.04.2019 09:00:00 - - - - - -
20.04.2019 08:00:00 29,0 22,0 34 18 E 10
20.04.2019 07:00:00 28,0 21,0 31 17 E 10
20.04.2019 06:00:00 26,0 21,0 34 18 E 10
20.04.2019 05:00:00 26,0 21,0 35 19 E 10
20.04.2019 04:00:00 - - - - - -
20.04.2019 03:00:00 26,0 22,0 34 18 E 10
20.04.2019 02:00:00 26,0 21,0 35 19 E 10
20.04.2019 01:00:00 26,0 22,0 35 19 E 10
20.04.2019 00:00:00 26,0 21,0 35 19 E 10
19.04.2019 23:00:00 26,0 21,0 31 17 E 10
19.04.2019 22:00:00 26,0 22,0 35 19 E 10
19.04.2019 21:00:00 26,0 22,0 31 17 E 10
19.04.2019 20:00:00 26,0 22,0 35 19 E 10
19.04.2019 19:00:00 26,0 22,0 35 19 E 10
19.04.2019 18:00:00 26,0 22,0 31 17 E 10
19.04.2019 17:00:00 27,0 22,0 37 20 E 10
19.04.2019 16:00:00 28,0 22,0 34 18 E 10
19.04.2019 15:00:00 29,0 22,0 37 20 E 10
19.04.2019 14:00:00 29,0 22,0 42 23 E 10
19.04.2019 13:00:00 30,0 22,0 41 22 E 10
19.04.2019 12:00:00 30,0 22,0 42 23 E 10
19.04.2019 11:00:00 30,0 22,0 41 22 E 10
19.04.2019 10:00:00 29,0 22,0 39 21 E 10
19.04.2019 09:00:00 28,0 21,0 39 21 E 10
19.04.2019 08:00:00 28,0 22,0 34 18 E 10
19.04.2019 07:00:00 27,0 22,0 34 18 E 10
19.04.2019 06:00:00 26,0 21,0 31 17 E 10
19.04.2019 05:00:00 26,0 22,0 24 13 E 10
19.04.2019 04:00:00 26,0 21,0 26 14 E 10
19.04.2019 03:00:00 26,0 21,0 24 13 E 10
19.04.2019 02:00:00 26,0 22,0 24 13 E 10
19.04.2019 01:00:00 26,0 21,0 24 13 E 10
19.04.2019 00:00:00 26,0 21,0 28 15 E 10
18.04.2019 23:00:00 26,0 21,0 28 15 E 10
18.04.2019 22:00:00 26,0 21,0 28 15 E 10
18.04.2019 21:00:00 26,0 22,0 24 13 E 10
18.04.2019 20:00:00 26,0 21,0 28 15 E 10
18.04.2019 19:00:00 26,0 22,0 28 15 E 10
18.04.2019 18:00:00 27,0 21,0 29 16 E 10
18.04.2019 17:00:00 28,0 22,0 29 16 E 10
18.04.2019 16:00:00 29,0 22,0 31 17 E 10
18.04.2019 15:00:00 29,0 22,0 31 17 E 10
18.04.2019 14:00:00 30,0 23,0 35 19 E 10
18.04.2019 13:00:00 30,0 22,0 37 20 E 10
18.04.2019 12:00:00 30,0 22,0 34 18 E 10
18.04.2019 11:00:00 30,0 23,0 35 19 E 10
18.04.2019 10:00:00 28,0 23,0 28 15 E 10
18.04.2019 09:00:00 28,0 22,0 34 18 E 10
18.04.2019 08:00:00 27,0 23,0 26 14 E 10
18.04.2019 07:00:00 25,0 21,0 39 21 E 10
18.04.2019 06:00:00 24,0 22,0 18 10 ENE 9
18.04.2019 05:00:00 23,0 21,0 31 17 E 7
18.04.2019 04:00:00 25,0 20,0 26 14 E 10
18.04.2019 03:00:00 25,0 21,0 35 19 E 10

tt = temperature
td = dewpoint
ff = wind speed
dd = wind direction
vv = visibility

Next stations